sensor_id;sensor_type;location;lat;lon;timestamp;temperature;humidity
53776;DHT22;44276;49.534;6.378;2023-02-15T00:00:15;-2.40;99.90
53776;DHT22;44276;49.534;6.378;2023-02-15T00:02:46;-2.40;99.90
53776;DHT22;44276;49.534;6.378;2023-02-15T00:05:15;-2.40;99.90
53776;DHT22;44276;49.534;6.378;2023-02-15T00:07:44;-2.50;99.90
53776;DHT22;44276;49.534;6.378;2023-02-15T00:10:12;-2.60;99.90
53776;DHT22;44276;49.534;6.378;2023-02-15T00:12:40;-2.60;99.90
53776;DHT22;44276;49.534;6.378;2023-02-15T00:15:09;-2.60;99.90
53776;DHT22;44276;49.534;6.378;2023-02-15T00:17:39;-2.60;99.90
53776;DHT22;44276;49.534;6.378;2023-02-15T00:20:08;-2.70;99.90
53776;DHT22;44276;49.534;6.378;2023-02-15T00:22:38;-2.80;99.90
53776;DHT22;44276;49.534;6.378;2023-02-15T00:25:07;-2.90;99.90
53776;DHT22;44276;49.534;6.378;2023-02-15T00:27:35;-2.90;99.90
53776;DHT22;44276;49.534;6.378;2023-02-15T00:30:03;-2.90;99.90
53776;DHT22;44276;49.534;6.378;2023-02-15T00:32:33;-2.80;99.90
53776;DHT22;44276;49.534;6.378;2023-02-15T00:35:01;-2.80;99.90
53776;DHT22;44276;49.534;6.378;2023-02-15T00:37:29;-2.70;99.90
53776;DHT22;44276;49.534;6.378;2023-02-15T00:39:59;-2.50;99.90
53776;DHT22;44276;49.534;6.378;2023-02-15T00:42:27;-2.40;99.90
53776;DHT22;44276;49.534;6.378;2023-02-15T00:44:55;-2.30;99.90
53776;DHT22;44276;49.534;6.378;2023-02-15T00:47:23;-2.30;99.90
53776;DHT22;44276;49.534;6.378;2023-02-15T00:49:52;-2.20;99.90
53776;DHT22;44276;49.534;6.378;2023-02-15T00:52:20;-2.20;99.90
53776;DHT22;44276;49.534;6.378;2023-02-15T00:54:48;-2.20;99.90
53776;DHT22;44276;49.534;6.378;2023-02-15T00:57:17;-2.20;99.90
53776;DHT22;44276;49.534;6.378;2023-02-15T00:59:46;-2.30;99.90
53776;DHT22;44276;49.534;6.378;2023-02-15T01:02:14;-2.50;99.90
53776;DHT22;44276;49.534;6.378;2023-02-15T01:04:42;-2.70;99.90
53776;DHT22;44276;49.534;6.378;2023-02-15T01:07:10;-2.90;99.90
53776;DHT22;44276;49.534;6.378;2023-02-15T01:09:38;-3.10;99.90
53776;DHT22;44276;49.534;6.378;2023-02-15T01:12:06;-3.10;99.90
53776;DHT22;44276;49.534;6.378;2023-02-15T01:14:36;-3.00;99.90
53776;DHT22;44276;49.534;6.378;2023-02-15T01:17:04;-2.90;99.90
53776;DHT22;44276;49.534;6.378;2023-02-15T01:19:32;-2.90;99.90
53776;DHT22;44276;49.534;6.378;2023-02-15T01:22:01;-2.90;99.90
53776;DHT22;44276;49.534;6.378;2023-02-15T01:24:30;-2.90;99.90
53776;DHT22;44276;49.534;6.378;2023-02-15T01:26:58;-2.80;99.90
53776;DHT22;44276;49.534;6.378;2023-02-15T01:29:26;-2.70;99.90
53776;DHT22;44276;49.534;6.378;2023-02-15T01:31:56;-2.70;99.90
53776;DHT22;44276;49.534;6.378;2023-02-15T01:34:24;-2.80;99.90
53776;DHT22;44276;49.534;6.378;2023-02-15T01:36:52;-2.70;99.90
53776;DHT22;44276;49.534;6.378;2023-02-15T01:39:21;-2.60;99.90
53776;DHT22;44276;49.534;6.378;2023-02-15T01:41:49;-2.60;99.90
53776;DHT22;44276;49.534;6.378;2023-02-15T01:44:48;-2.80;99.90
53776;DHT22;44276;49.534;6.378;2023-02-15T01:47:22;-2.80;99.90
53776;DHT22;44276;49.534;6.378;2023-02-15T01:50:00;-2.90;99.90
53776;DHT22;44276;49.534;6.378;2023-02-15T01:52:35;-3.00;99.90
53776;DHT22;44276;49.534;6.378;2023-02-15T01:55:07;-2.90;99.90
53776;DHT22;44276;49.534;6.378;2023-02-15T01:57:36;-2.90;99.90
53776;DHT22;44276;49.534;6.378;2023-02-15T02:00:06;-2.90;99.90
53776;DHT22;44276;49.534;6.378;2023-02-15T02:02:37;-3.00;99.90
53776;DHT22;44276;49.534;6.378;2023-02-15T02:05:07;-3.20;99.90
53776;DHT22;44276;49.534;6.378;2023-02-15T02:07:38;-3.40;99.90
53776;DHT22;44276;49.534;6.378;2023-02-15T02:10:13;-3.50;99.90
53776;DHT22;44276;49.534;6.378;2023-02-15T02:12:45;-3.60;99.90
53776;DHT22;44276;49.534;6.378;2023-02-15T02:15:17;-3.60;99.90
53776;DHT22;44276;49.534;6.378;2023-02-15T02:17:58;-3.40;99.90
53776;DHT22;44276;49.534;6.378;2023-02-15T02:24:14;-3.50;99.90
53776;DHT22;44276;49.534;6.378;2023-02-15T02:27:32;-3.50;99.90
53776;DHT22;44276;49.534;6.378;2023-02-15T02:30:24;-3.50;99.90
53776;DHT22;44276;49.534;6.378;2023-02-15T02:33:23;-3.30;99.90
53776;DHT22;44276;49.534;6.378;2023-02-15T02:36:12;-3.30;99.90
53776;DHT22;44276;49.534;6.378;2023-02-15T02:39:09;-3.30;99.90
53776;DHT22;44276;49.534;6.378;2023-02-15T02:41:55;-3.40;99.90
53776;DHT22;44276;49.534;6.378;2023-02-15T02:44:30;-3.40;99.90
53776;DHT22;44276;49.534;6.378;2023-02-15T02:47:09;-3.50;99.90
53776;DHT22;44276;49.534;6.378;2023-02-15T02:49:44;-3.50;99.90
53776;DHT22;44276;49.534;6.378;2023-02-15T02:52:36;-3.70;99.90
53776;DHT22;44276;49.534;6.378;2023-02-15T02:55:11;-3.80;99.90
53776;DHT22;44276;49.534;6.378;2023-02-15T02:57:48;-3.90;99.90
53776;DHT22;44276;49.534;6.378;2023-02-15T03:00:24;-3.90;99.90
53776;DHT22;44276;49.534;6.378;2023-02-15T03:02:58;-3.90;99.90
53776;DHT22;44276;49.534;6.378;2023-02-15T03:05:34;-3.90;99.90
53776;DHT22;44276;49.534;6.378;2023-02-15T03:08:07;-3.80;99.90
53776;DHT22;44276;49.534;6.378;2023-02-15T03:10:38;-3.60;99.90
53776;DHT22;44276;49.534;6.378;2023-02-15T03:13:08;-3.50;99.90
53776;DHT22;44276;49.534;6.378;2023-02-15T03:15:38;-3.40;99.90
53776;DHT22;44276;49.534;6.378;2023-02-15T03:18:30;-3.20;99.90
53776;DHT22;44276;49.534;6.378;2023-02-15T03:21:05;-3.20;99.90
53776;DHT22;44276;49.534;6.378;2023-02-15T03:23:37;-3.10;99.90
53776;DHT22;44276;49.534;6.378;2023-02-15T03:26:07;-3.00;99.90
53776;DHT22;44276;49.534;6.378;2023-02-15T03:28:42;-2.90;99.90
53776;DHT22;44276;49.534;6.378;2023-02-15T03:31:15;-2.80;99.90
53776;DHT22;44276;49.534;6.378;2023-02-15T03:33:50;-2.60;99.90
53776;DHT22;44276;49.534;6.378;2023-02-15T03:36:30;-2.50;99.90
53776;DHT22;44276;49.534;6.378;2023-02-15T03:39:09;-2.30;99.90
53776;DHT22;44276;49.534;6.378;2023-02-15T03:41:46;-2.30;99.90
53776;DHT22;44276;49.534;6.378;2023-02-15T03:44:25;-2.30;99.90
53776;DHT22;44276;49.534;6.378;2023-02-15T03:47:00;-2.20;99.90
53776;DHT22;44276;49.534;6.378;2023-02-15T03:49:36;-2.20;99.90
53776;DHT22;44276;49.534;6.378;2023-02-15T03:52:11;-2.20;99.90
53776;DHT22;44276;49.534;6.378;2023-02-15T03:54:43;-2.20;99.90
53776;DHT22;44276;49.534;6.378;2023-02-15T03:57:18;-2.20;99.90
53776;DHT22;44276;49.534;6.378;2023-02-15T04:00:12;-2.00;99.90
53776;DHT22;44276;49.534;6.378;2023-02-15T04:03:17;-2.00;99.90
53776;DHT22;44276;49.534;6.378;2023-02-15T04:05:52;-1.90;99.90
53776;DHT22;44276;49.534;6.378;2023-02-15T04:08:21;-1.90;99.90
53776;DHT22;44276;49.534;6.378;2023-02-15T04:11:10;-1.80;99.90
53776;DHT22;44276;49.534;6.378;2023-02-15T04:13:37;-1.80;99.90
53776;DHT22;44276;49.534;6.378;2023-02-15T04:16:06;-1.80;99.90
53776;DHT22;44276;49.534;6.378;2023-02-15T04:18:35;-1.80;99.90
53776;DHT22;44276;49.534;6.378;2023-02-15T04:21:24;-1.70;99.90
53776;DHT22;44276;49.534;6.378;2023-02-15T04:24:13;-1.70;99.90
53776;DHT22;44276;49.534;6.378;2023-02-15T04:27:00;-1.70;99.90
53776;DHT22;44276;49.534;6.378;2023-02-15T04:29:29;-1.70;99.90
53776;DHT22;44276;49.534;6.378;2023-02-15T04:32:00;-1.60;99.90
53776;DHT22;44276;49.534;6.378;2023-02-15T04:34:28;-1.60;99.90
53776;DHT22;44276;49.534;6.378;2023-02-15T04:36:57;-1.60;99.90
53776;DHT22;44276;49.534;6.378;2023-02-15T04:39:26;-1.60;99.90
53776;DHT22;44276;49.534;6.378;2023-02-15T04:41:54;-1.60;99.90
53776;DHT22;44276;49.534;6.378;2023-02-15T04:44:22;-1.60;99.90
53776;DHT22;44276;49.534;6.378;2023-02-15T04:46:51;-1.60;99.90
53776;DHT22;44276;49.534;6.378;2023-02-15T04:49:19;-1.60;99.90
53776;DHT22;44276;49.534;6.378;2023-02-15T04:51:47;-1.60;99.90
53776;DHT22;44276;49.534;6.378;2023-02-15T04:54:15;-1.50;99.90
53776;DHT22;44276;49.534;6.378;2023-02-15T04:56:44;-1.50;99.90
53776;DHT22;44276;49.534;6.378;2023-02-15T04:59:13;-1.50;99.90
53776;DHT22;44276;49.534;6.378;2023-02-15T05:01:41;-1.50;99.90
53776;DHT22;44276;49.534;6.378;2023-02-15T05:04:10;-1.50;99.90
53776;DHT22;44276;49.534;6.378;2023-02-15T05:06:38;-1.50;99.90
53776;DHT22;44276;49.534;6.378;2023-02-15T05:09:06;-1.50;99.90
53776;DHT22;44276;49.534;6.378;2023-02-15T05:11:34;-1.50;99.90
53776;DHT22;44276;49.534;6.378;2023-02-15T05:14:03;-1.50;99.90
53776;DHT22;44276;49.534;6.378;2023-02-15T05:16:33;-1.50;99.90
53776;DHT22;44276;49.534;6.378;2023-02-15T05:19:01;-1.40;99.90
53776;DHT22;44276;49.534;6.378;2023-02-15T05:21:30;-1.40;99.90
53776;DHT22;44276;49.534;6.378;2023-02-15T05:23:59;-1.40;99.90
53776;DHT22;44276;49.534;6.378;2023-02-15T05:26:27;-1.50;99.90
53776;DHT22;44276;49.534;6.378;2023-02-15T05:29:14;-1.50;99.90
53776;DHT22;44276;49.534;6.378;2023-02-15T05:31:42;-1.50;99.90
53776;DHT22;44276;49.534;6.378;2023-02-15T05:34:14;-1.40;99.90
53776;DHT22;44276;49.534;6.378;2023-02-15T05:36:42;-1.40;99.90
53776;DHT22;44276;49.534;6.378;2023-02-15T05:39:10;-1.40;99.90
53776;DHT22;44276;49.534;6.378;2023-02-15T05:41:38;-1.40;99.90
53776;DHT22;44276;49.534;6.378;2023-02-15T05:44:06;-1.40;99.90
53776;DHT22;44276;49.534;6.378;2023-02-15T05:46:36;-1.30;99.90
53776;DHT22;44276;49.534;6.378;2023-02-15T05:49:04;-1.30;99.90
53776;DHT22;44276;49.534;6.378;2023-02-15T05:51:32;-1.30;99.90
53776;DHT22;44276;49.534;6.378;2023-02-15T05:54:01;-1.30;99.90
53776;DHT22;44276;49.534;6.378;2023-02-15T05:56:29;-1.20;99.90
53776;DHT22;44276;49.534;6.378;2023-02-15T05:58:57;-1.20;99.90
53776;DHT22;44276;49.534;6.378;2023-02-15T06:01:25;-1.20;99.90
53776;DHT22;44276;49.534;6.378;2023-02-15T06:03:54;-1.10;99.90
53776;DHT22;44276;49.534;6.378;2023-02-15T06:06:23;-1.10;99.90
53776;DHT22;44276;49.534;6.378;2023-02-15T06:08:51;-1.10;99.90
53776;DHT22;44276;49.534;6.378;2023-02-15T06:11:19;-1.10;99.90
53776;DHT22;44276;49.534;6.378;2023-02-15T06:13:47;-1.10;99.90
53776;DHT22;44276;49.534;6.378;2023-02-15T06:16:15;-1.10;99.90
53776;DHT22;44276;49.534;6.378;2023-02-15T06:18:43;-1.10;99.90
53776;DHT22;44276;49.534;6.378;2023-02-15T06:21:13;-1.10;99.90
53776;DHT22;44276;49.534;6.378;2023-02-15T06:23:41;-1.10;99.90
53776;DHT22;44276;49.534;6.378;2023-02-15T06:26:09;-1.10;99.90
53776;DHT22;44276;49.534;6.378;2023-02-15T06:28:38;-1.10;99.90
53776;DHT22;44276;49.534;6.378;2023-02-15T06:31:07;-1.10;99.90
53776;DHT22;44276;49.534;6.378;2023-02-15T06:33:36;-1.20;99.90
53776;DHT22;44276;49.534;6.378;2023-02-15T06:36:05;-1.20;99.90
53776;DHT22;44276;49.534;6.378;2023-02-15T06:38:35;-1.20;99.90
53776;DHT22;44276;49.534;6.378;2023-02-15T06:41:03;-1.20;99.90
53776;DHT22;44276;49.534;6.378;2023-02-15T06:43:31;-1.20;99.90
53776;DHT22;44276;49.534;6.378;2023-02-15T06:46:00;-1.20;99.90
53776;DHT22;44276;49.534;6.378;2023-02-15T06:48:29;-1.10;99.90
53776;DHT22;44276;49.534;6.378;2023-02-15T06:50:57;-1.20;99.90
53776;DHT22;44276;49.534;6.378;2023-02-15T06:53:25;-1.10;99.90
53776;DHT22;44276;49.534;6.378;2023-02-15T06:56:01;-1.10;99.90
53776;DHT22;44276;49.534;6.378;2023-02-15T06:58:33;-1.00;99.90
53776;DHT22;44276;49.534;6.378;2023-02-15T07:01:01;-1.10;99.90
53776;DHT22;44276;49.534;6.378;2023-02-15T07:03:31;-1.00;99.90
53776;DHT22;44276;49.534;6.378;2023-02-15T07:06:02;-1.00;99.90
53776;DHT22;44276;49.534;6.378;2023-02-15T07:08:35;-1.00;99.90
53776;DHT22;44276;49.534;6.378;2023-02-15T07:11:06;-1.10;99.90
53776;DHT22;44276;49.534;6.378;2023-02-15T07:13:52;-1.00;99.90
53776;DHT22;44276;49.534;6.378;2023-02-15T07:16:21;-0.90;99.90
53776;DHT22;44276;49.534;6.378;2023-02-15T07:18:49;-1.00;99.90
53776;DHT22;44276;49.534;6.378;2023-02-15T07:21:17;-0.90;99.90
53776;DHT22;44276;49.534;6.378;2023-02-15T07:23:46;-0.90;99.90
53776;DHT22;44276;49.534;6.378;2023-02-15T07:26:16;-0.90;99.90
53776;DHT22;44276;49.534;6.378;2023-02-15T07:28:44;-0.80;99.90
53776;DHT22;44276;49.534;6.378;2023-02-15T07:31:12;-0.70;99.90
53776;DHT22;44276;49.534;6.378;2023-02-15T07:33:41;-0.70;99.90
53776;DHT22;44276;49.534;6.378;2023-02-15T07:36:10;-0.60;99.90
53776;DHT22;44276;49.534;6.378;2023-02-15T07:38:40;-0.60;99.90
53776;DHT22;44276;49.534;6.378;2023-02-15T07:41:11;-0.50;99.90
53776;DHT22;44276;49.534;6.378;2023-02-15T07:43:43;-0.50;99.90
53776;DHT22;44276;49.534;6.378;2023-02-15T07:46:15;-0.50;99.90
53776;DHT22;44276;49.534;6.378;2023-02-15T07:48:45;-0.50;99.90
53776;DHT22;44276;49.534;6.378;2023-02-15T07:51:14;-0.50;99.90
53776;DHT22;44276;49.534;6.378;2023-02-15T07:53:42;-0.40;99.90
53776;DHT22;44276;49.534;6.378;2023-02-15T07:56:12;-0.40;99.90
53776;DHT22;44276;49.534;6.378;2023-02-15T07:58:42;-0.30;99.90
53776;DHT22;44276;49.534;6.378;2023-02-15T08:01:21;-0.30;99.90
53776;DHT22;44276;49.534;6.378;2023-02-15T08:03:51;-0.20;99.90
53776;DHT22;44276;49.534;6.378;2023-02-15T08:06:21;-0.30;99.90
53776;DHT22;44276;49.534;6.378;2023-02-15T08:08:51;-0.30;99.90
53776;DHT22;44276;49.534;6.378;2023-02-15T08:11:21;-0.20;99.90
53776;DHT22;44276;49.534;6.378;2023-02-15T08:13:58;-0.10;99.90
53776;DHT22;44276;49.534;6.378;2023-02-15T08:16:31;0.00;99.90
53776;DHT22;44276;49.534;6.378;2023-02-15T08:19:03;0.10;99.90
53776;DHT22;44276;49.534;6.378;2023-02-15T08:21:34;0.30;99.90
53776;DHT22;44276;49.534;6.378;2023-02-15T08:24:03;0.20;99.90
53776;DHT22;44276;49.534;6.378;2023-02-15T08:26:33;0.20;99.90
53776;DHT22;44276;49.534;6.378;2023-02-15T08:29:04;0.30;99.90
53776;DHT22;44276;49.534;6.378;2023-02-15T08:31:33;0.30;99.90
53776;DHT22;44276;49.534;6.378;2023-02-15T08:34:02;0.40;99.90
53776;DHT22;44276;49.534;6.378;2023-02-15T08:36:31;0.40;99.90
53776;DHT22;44276;49.534;6.378;2023-02-15T08:39:00;0.40;99.90
53776;DHT22;44276;49.534;6.378;2023-02-15T08:41:32;0.40;99.90
53776;DHT22;44276;49.534;6.378;2023-02-15T08:44:05;0.40;99.90
53776;DHT22;44276;49.534;6.378;2023-02-15T08:46:36;0.50;99.90
53776;DHT22;44276;49.534;6.378;2023-02-15T08:49:06;0.60;99.90
53776;DHT22;44276;49.534;6.378;2023-02-15T08:51:36;0.60;99.90
53776;DHT22;44276;49.534;6.378;2023-02-15T08:54:07;0.70;99.90
53776;DHT22;44276;49.534;6.378;2023-02-15T08:56:38;0.80;99.90
53776;DHT22;44276;49.534;6.378;2023-02-15T08:59:12;0.90;99.90
53776;DHT22;44276;49.534;6.378;2023-02-15T09:01:43;1.20;99.90
53776;DHT22;44276;49.534;6.378;2023-02-15T09:04:11;1.20;99.90
53776;DHT22;44276;49.534;6.378;2023-02-15T09:06:43;1.30;99.90
53776;DHT22;44276;49.534;6.378;2023-02-15T09:09:14;1.50;99.90
53776;DHT22;44276;49.534;6.378;2023-02-15T09:11:44;1.70;99.90
53776;DHT22;44276;49.534;6.378;2023-02-15T09:14:17;1.80;99.90
53776;DHT22;44276;49.534;6.378;2023-02-15T09:16:48;1.90;99.90
53776;DHT22;44276;49.534;6.378;2023-02-15T09:19:20;1.90;99.90
53776;DHT22;44276;49.534;6.378;2023-02-15T09:21:49;1.90;99.90
53776;DHT22;44276;49.534;6.378;2023-02-15T09:24:18;2.30;99.90
53776;DHT22;44276;49.534;6.378;2023-02-15T09:26:47;2.40;99.90
53776;DHT22;44276;49.534;6.378;2023-02-15T09:29:18;2.70;99.90
53776;DHT22;44276;49.534;6.378;2023-02-15T09:31:48;3.00;99.90
53776;DHT22;44276;49.534;6.378;2023-02-15T09:34:19;3.10;99.90
53776;DHT22;44276;49.534;6.378;2023-02-15T09:36:49;3.40;99.90
53776;DHT22;44276;49.534;6.378;2023-02-15T09:39:21;3.20;99.90
53776;DHT22;44276;49.534;6.378;2023-02-15T09:45:20;3.30;99.90
53776;DHT22;44276;49.534;6.378;2023-02-15T09:51:31;4.20;99.90
53776;DHT22;44276;49.534;6.378;2023-02-15T09:54:19;5.00;99.90
53776;DHT22;44276;49.534;6.378;2023-02-15T09:56:59;4.80;99.90
53776;DHT22;44276;49.534;6.378;2023-02-15T09:59:40;5.00;99.90
53776;DHT22;44276;49.534;6.378;2023-02-15T10:02:23;5.10;99.90
53776;DHT22;44276;49.534;6.378;2023-02-15T10:05:16;5.30;99.90
53776;DHT22;44276;49.534;6.378;2023-02-15T10:08:19;5.50;99.90
53776;DHT22;44276;49.534;6.378;2023-02-15T10:11:06;6.00;96.30
53776;DHT22;44276;49.534;6.378;2023-02-15T10:14:10;6.50;98.20
53776;DHT22;44276;49.534;6.378;2023-02-15T10:16:58;7.70;73.40
53776;DHT22;44276;49.534;6.378;2023-02-15T10:19:40;8.30;61.30
53776;DHT22;44276;49.534;6.378;2023-02-15T10:22:28;9.40;61.90
53776;DHT22;44276;49.534;6.378;2023-02-15T10:25:15;9.70;42.90
53776;DHT22;44276;49.534;6.378;2023-02-15T10:28:05;10.00;37.30
53776;DHT22;44276;49.534;6.378;2023-02-15T10:30:41;9.30;37.50
53776;DHT22;44276;49.534;6.378;2023-02-15T10:33:25;9.40;38.70
53776;DHT22;44276;49.534;6.378;2023-02-15T10:36:11;9.50;42.70
53776;DHT22;44276;49.534;6.378;2023-02-15T10:39:02;9.50;36.20
53776;DHT22;44276;49.534;6.378;2023-02-15T10:41:42;10.20;34.20
53776;DHT22;44276;49.534;6.378;2023-02-15T10:44:28;11.90;29.70
53776;DHT22;44276;49.534;6.378;2023-02-15T10:47:23;13.10;26.40
53776;DHT22;44276;49.534;6.378;2023-02-15T10:50:11;13.80;25.70
53776;DHT22;44276;49.534;6.378;2023-02-15T10:53:04;13.90;23.90
53776;DHT22;44276;49.534;6.378;2023-02-15T10:55:52;12.90;24.50
53776;DHT22;44276;49.534;6.378;2023-02-15T10:58:37;13.30;24.20
53776;DHT22;44276;49.534;6.378;2023-02-15T11:01:22;14.30;22.60
53776;DHT22;44276;49.534;6.378;2023-02-15T11:04:12;15.30;21.10
53776;DHT22;44276;49.534;6.378;2023-02-15T11:07:08;15.20;20.60
53776;DHT22;44276;49.534;6.378;2023-02-15T11:10:18;15.30;20.00
53776;DHT22;44276;49.534;6.378;2023-02-15T11:12:58;15.20;20.60
53776;DHT22;44276;49.534;6.378;2023-02-15T11:15:35;14.40;20.60
53776;DHT22;44276;49.534;6.378;2023-02-15T11:18:12;14.60;20.60
53776;DHT22;44276;49.534;6.378;2023-02-15T11:20:53;14.70;21.00
53776;DHT22;44276;49.534;6.378;2023-02-15T11:23:27;15.00;20.50
53776;DHT22;44276;49.534;6.378;2023-02-15T11:25:59;14.90;20.50
53776;DHT22;44276;49.534;6.378;2023-02-15T11:28:31;14.90;20.40
53776;DHT22;44276;49.534;6.378;2023-02-15T11:31:12;15.50;20.20
53776;DHT22;44276;49.534;6.378;2023-02-15T11:33:47;14.60;19.50
53776;DHT22;44276;49.534;6.378;2023-02-15T11:36:21;14.10;21.00
53776;DHT22;44276;49.534;6.378;2023-02-15T11:38:59;14.80;20.10
53776;DHT22;44276;49.534;6.378;2023-02-15T11:41:36;15.00;19.30
53776;DHT22;44276;49.534;6.378;2023-02-15T11:44:13;15.60;20.30
53776;DHT22;44276;49.534;6.378;2023-02-15T11:46:45;15.60;19.20
53776;DHT22;44276;49.534;6.378;2023-02-15T11:49:22;15.80;20.30
53776;DHT22;44276;49.534;6.378;2023-02-15T11:51:58;16.00;19.30
53776;DHT22;44276;49.534;6.378;2023-02-15T11:54:33;16.20;18.90
53776;DHT22;44276;49.534;6.378;2023-02-15T11:57:12;16.30;19.60
53776;DHT22;44276;49.534;6.378;2023-02-15T11:59:52;16.70;18.70
53776;DHT22;44276;49.534;6.378;2023-02-15T12:02:26;16.10;18.90
53776;DHT22;44276;49.534;6.378;2023-02-15T12:04:58;15.80;19.60
53776;DHT22;44276;49.534;6.378;2023-02-15T12:07:33;15.60;19.80
53776;DHT22;44276;49.534;6.378;2023-02-15T12:10:16;14.80;19.90
53776;DHT22;44276;49.534;6.378;2023-02-15T12:13:09;14.20;20.80
53776;DHT22;44276;49.534;6.378;2023-02-15T12:15:41;14.30;21.80
53776;DHT22;44276;49.534;6.378;2023-02-15T12:18:20;14.70;21.00
53776;DHT22;44276;49.534;6.378;2023-02-15T12:20:59;14.70;20.70
53776;DHT22;44276;49.534;6.378;2023-02-15T12:23:30;14.70;21.10
53776;DHT22;44276;49.534;6.378;2023-02-15T12:26:00;14.50;21.60
53776;DHT22;44276;49.534;6.378;2023-02-15T12:28:34;14.30;22.30
53776;DHT22;44276;49.534;6.378;2023-02-15T12:31:10;13.30;23.40
53776;DHT22;44276;49.534;6.378;2023-02-15T12:33:51;12.70;24.90
53776;DHT22;44276;49.534;6.378;2023-02-15T12:36:24;12.30;25.30
53776;DHT22;44276;49.534;6.378;2023-02-15T12:39:16;12.00;26.00
53776;DHT22;44276;49.534;6.378;2023-02-15T12:42:01;11.80;26.70
53776;DHT22;44276;49.534;6.378;2023-02-15T12:44:35;12.00;26.30
53776;DHT22;44276;49.534;6.378;2023-02-15T12:47:05;12.50;26.40
53776;DHT22;44276;49.534;6.378;2023-02-15T12:49:36;12.60;25.10
53776;DHT22;44276;49.534;6.378;2023-02-15T12:52:13;12.60;26.10
53776;DHT22;44276;49.534;6.378;2023-02-15T12:54:51;12.40;26.10
53776;DHT22;44276;49.534;6.378;2023-02-15T12:57:25;12.30;25.80
53776;DHT22;44276;49.534;6.378;2023-02-15T12:59:57;12.10;26.60
53776;DHT22;44276;49.534;6.378;2023-02-15T13:02:35;12.00;26.30
53776;DHT22;44276;49.534;6.378;2023-02-15T13:05:18;11.90;26.00
53776;DHT22;44276;49.534;6.378;2023-02-15T13:07:53;11.90;26.60
53776;DHT22;44276;49.534;6.378;2023-02-15T13:10:27;12.20;26.70
53776;DHT22;44276;49.534;6.378;2023-02-15T13:12:58;12.20;26.20
53776;DHT22;44276;49.534;6.378;2023-02-15T13:15:35;12.20;26.60
53776;DHT22;44276;49.534;6.378;2023-02-15T13:18:10;12.30;26.30
53776;DHT22;44276;49.534;6.378;2023-02-15T13:20:43;12.20;26.40
53776;DHT22;44276;49.534;6.378;2023-02-15T13:23:22;12.20;26.40
53776;DHT22;44276;49.534;6.378;2023-02-15T13:25:57;12.30;26.50
53776;DHT22;44276;49.534;6.378;2023-02-15T13:28:36;12.40;25.70
53776;DHT22;44276;49.534;6.378;2023-02-15T13:31:13;12.50;26.60
53776;DHT22;44276;49.534;6.378;2023-02-15T13:33:46;12.80;26.20
53776;DHT22;44276;49.534;6.378;2023-02-15T13:36:23;13.20;25.50
53776;DHT22;44276;49.534;6.378;2023-02-15T13:39:03;13.10;25.50
53776;DHT22;44276;49.534;6.378;2023-02-15T13:41:50;12.80;25.50
53776;DHT22;44276;49.534;6.378;2023-02-15T13:44:36;12.80;25.20
53776;DHT22;44276;49.534;6.378;2023-02-15T13:47:31;12.70;26.10
53776;DHT22;44276;49.534;6.378;2023-02-15T13:50:28;12.70;25.80
53776;DHT22;44276;49.534;6.378;2023-02-15T13:53:23;12.70;26.20
53776;DHT22;44276;49.534;6.378;2023-02-15T13:56:10;12.70;26.80
53776;DHT22;44276;49.534;6.378;2023-02-15T14:01:57;12.70;27.60
53776;DHT22;44276;49.534;6.378;2023-02-15T14:04:58;12.90;26.50
53776;DHT22;44276;49.534;6.378;2023-02-15T14:07:50;13.10;26.30
53776;DHT22;44276;49.534;6.378;2023-02-15T14:10:43;13.00;27.20
53776;DHT22;44276;49.534;6.378;2023-02-15T14:13:45;12.90;26.40
53776;DHT22;44276;49.534;6.378;2023-02-15T14:16:33;12.90;26.90
53776;DHT22;44276;49.534;6.378;2023-02-15T14:19:18;12.80;27.20
53776;DHT22;44276;49.534;6.378;2023-02-15T14:21:58;12.60;26.80
53776;DHT22;44276;49.534;6.378;2023-02-15T14:24:37;12.80;27.50
53776;DHT22;44276;49.534;6.378;2023-02-15T14:27:22;12.90;26.10
53776;DHT22;44276;49.534;6.378;2023-02-15T14:29:57;12.90;26.50
53776;DHT22;44276;49.534;6.378;2023-02-15T14:32:31;12.70;27.30
53776;DHT22;44276;49.534;6.378;2023-02-15T14:35:04;12.60;27.10
53776;DHT22;44276;49.534;6.378;2023-02-15T14:37:46;12.50;28.50
53776;DHT22;44276;49.534;6.378;2023-02-15T14:40:31;12.50;28.10
53776;DHT22;44276;49.534;6.378;2023-02-15T14:43:30;12.60;27.70
53776;DHT22;44276;49.534;6.378;2023-02-15T14:46:11;12.50;27.70
53776;DHT22;44276;49.534;6.378;2023-02-15T14:48:50;12.30;27.80
53776;DHT22;44276;49.534;6.378;2023-02-15T14:51:55;12.20;27.10
53776;DHT22;44276;49.534;6.378;2023-02-15T14:54:55;12.00;28.50
53776;DHT22;44276;49.534;6.378;2023-02-15T14:57:30;11.80;27.40
53776;DHT22;44276;49.534;6.378;2023-02-15T15:00:29;11.60;28.70
53776;DHT22;44276;49.534;6.378;2023-02-15T15:03:01;11.40;29.90
53776;DHT22;44276;49.534;6.378;2023-02-15T15:05:33;11.30;29.90
53776;DHT22;44276;49.534;6.378;2023-02-15T15:08:04;11.30;31.10
53776;DHT22;44276;49.534;6.378;2023-02-15T15:10:49;11.60;30.00
53776;DHT22;44276;49.534;6.378;2023-02-15T15:13:54;11.60;29.20
53776;DHT22;44276;49.534;6.378;2023-02-15T15:16:45;11.50;30.00
53776;DHT22;44276;49.534;6.378;2023-02-15T15:22:41;11.20;31.10
53776;DHT22;44276;49.534;6.378;2023-02-15T15:31:24;11.30;30.90
53776;DHT22;44276;49.534;6.378;2023-02-15T15:34:27;11.20;30.60
53776;DHT22;44276;49.534;6.378;2023-02-15T15:37:32;11.10;30.50
53776;DHT22;44276;49.534;6.378;2023-02-15T15:40:41;10.90;31.70
53776;DHT22;44276;49.534;6.378;2023-02-15T15:47:06;10.80;32.00
53776;DHT22;44276;49.534;6.378;2023-02-15T15:49:46;10.60;32.00
53776;DHT22;44276;49.534;6.378;2023-02-15T15:52:17;10.40;32.80
53776;DHT22;44276;49.534;6.378;2023-02-15T15:54:50;10.20;33.80
53776;DHT22;44276;49.534;6.378;2023-02-15T15:57:28;10.00;34.80
53776;DHT22;44276;49.534;6.378;2023-02-15T16:00:00;9.90;36.90
53776;DHT22;44276;49.534;6.378;2023-02-15T16:02:28;9.80;37.30
53776;DHT22;44276;49.534;6.378;2023-02-15T16:05:06;9.80;37.60
53776;DHT22;44276;49.534;6.378;2023-02-15T16:07:35;9.60;38.30
53776;DHT22;44276;49.534;6.378;2023-02-15T16:10:06;9.50;39.30
53776;DHT22;44276;49.534;6.378;2023-02-15T16:12:38;9.30;40.10
53776;DHT22;44276;49.534;6.378;2023-02-15T16:15:14;9.10;42.40
53776;DHT22;44276;49.534;6.378;2023-02-15T16:17:47;8.80;45.60
53776;DHT22;44276;49.534;6.378;2023-02-15T16:20:22;8.40;51.00
53776;DHT22;44276;49.534;6.378;2023-02-15T16:22:56;8.10;55.70
53776;DHT22;44276;49.534;6.378;2023-02-15T16:25:46;7.70;63.40
53776;DHT22;44276;49.534;6.378;2023-02-15T16:28:23;7.40;68.90
53776;DHT22;44276;49.534;6.378;2023-02-15T16:31:05;7.10;75.00
53776;DHT22;44276;49.534;6.378;2023-02-15T16:33:39;6.90;82.70
53776;DHT22;44276;49.534;6.378;2023-02-15T16:36:11;6.70;93.80
53776;DHT22;44276;49.534;6.378;2023-02-15T16:39:16;6.40;97.00
53776;DHT22;44276;49.534;6.378;2023-02-15T16:41:47;6.10;99.90
53776;DHT22;44276;49.534;6.378;2023-02-15T16:44:19;5.90;99.90
53776;DHT22;44276;49.534;6.378;2023-02-15T16:46:51;5.50;99.90
53776;DHT22;44276;49.534;6.378;2023-02-15T16:49:23;5.30;99.90
53776;DHT22;44276;49.534;6.378;2023-02-15T16:51:55;5.00;99.90
53776;DHT22;44276;49.534;6.378;2023-02-15T16:54:27;4.70;99.90